Airfield :
LOGIN :

Register | Disclaimer

   EN    FR    IT 

 










Legend :    VFR   Marginal VFR   IFR   Intensive IFR   Very Intensive IFR
Visi :
Ceiling :
>= 8 km
>= 3000ft
5 to 8 km
1000 to 3000 ft
1500m to 5 km
500 to 1000 ft
800 to 1500m
200 to 500 ft
< 800m
< 200 ft
Symbols :   Thunderstorms  Fog  Heavy snow  Heavy precipitations  Wind > 20 kt
SIGMETs :     Misc.  Thunderstorms  Icing  Turbulence  Mountain Waves  Volcanic Ashes






- Airport Elevation : 656 ft
- IATA code : CMN


GMMN - Casablanca Mohammed V

CURRENT METAR :
  • 190230Z VRB05KT 9999 SCT010 06/06 Q1028 NOSIG

EXPIRED METARs :
  • 190200Z 19003KT 7000 SCT003 06/05 Q1029 NOSIG
  • 190130Z 18003KT 4000 BR SCT003 06/05 Q1029 NOSIG
  • 190100Z 18004KT 160V230 4000 BR SCT003 06/05 Q1029 NOSIG
  • 190030Z 17004KT 5000 FEW003 06/06 Q1029 NOSIG
  • 190000Z 16005KT 5000 FEW003 07/07 Q1030 NOSIG

TAF TAF GMMN
Valid from the 19 at 00:00 until the 20 at 06:00 UTC


182300Z 1900/2006 14003KT 5000 SCT004
PROB40 1900/1903 2000 BR BKN003
TEMPO 1904/1912 4000 RA BKN014 BKN060
BECMG 1912/1918 34014KT 9999 SCT016
BECMG 1919/1923 20005KT



MET'MAP, your aeronautical weather chart ! - Copyright ORBIFLY December 2007 - Disclaimer

ORBIFLY MET'MAP TEAM :

Programming & Development : Alexandra Zaïnal
Concept & original design : Baudouin d'Aumeries
Assistance for programming : Marc-Olivier Méhu
Technical & hardware support : Manuel Goepfert

Contact : metmap@orbifly.com




SOURCES & CREDITS :

   NOAA